Time;durP1;ratioP1;P1;durP2;ratioP2;P2;SDS_P1;SDS_P2;PMS_P1;PMS_P2;Temp;Humidity;BMP_temperature;BMP_pressure;BME280_temperature;BME280_humidity;BME280_pressure;Samples;Min_cycle;Max_cycle;Signal;HPM_P1;HPM_P2
2021/04/14 00:01:12;;;;;;;4.50;1.85;;;-0.80;99.90;;;;;;5108898;28;20047;-68
2021/04/14 00:03:39;;;;;;;4.97;2.40;;;-0.80;99.90;;;;;;5079512;28;20050;-68
2021/04/14 00:06:08;;;;;;;7.53;2.42;;;-0.80;99.90;;;;;;5089968;28;20069;-68
2021/04/14 00:08:35;;;;;;;8.50;2.30;;;-0.80;99.90;;;;;;5084340;28;20105;-68
2021/04/14 00:11:04;;;;;;;4.03;1.83;;;-0.70;99.90;;;;;;5107408;28;20051;-67
2021/04/14 00:13:38;;;;;;;8.05;2.42;;;-0.60;99.90;;;;;;5103072;28;20048;-67
2021/04/14 00:16:04;;;;;;;;;;;-0.70;99.90;;;;;;5104401;28;20113;-67
2021/04/14 00:18:30;;;;;;;8.88;2.13;;;-0.70;99.90;;;;;;5072030;28;19920;-67
2021/04/14 00:20:57;;;;;;;4.75;2.30;;;-0.80;99.90;;;;;;5100100;28;20081;-67
2021/04/14 00:23:24;;;;;;;12.48;2.35;;;-0.90;99.90;;;;;;5075579;28;20040;-67
2021/04/14 00:25:51;;;;;;;5.45;1.70;;;-1.00;99.90;;;;;;5116020;27;20043;-67
2021/04/14 00:28:21;;;;;;;5.82;2.03;;;-1.00;99.90;;;;;;5090883;28;20040;-67
2021/04/14 00:30:49;;;;;;;5.57;2.45;;;-1.10;99.90;;;;;;5086707;28;20089;-67
2021/04/14 00:33:16;;;;;;;8.43;2.45;;;-1.00;99.90;;;;;;5090204;28;20051;-67
2021/04/14 00:35:43;;;;;;;6.63;2.30;;;-0.90;99.90;;;;;;5105585;28;20502;-67
2021/04/14 00:38:11;;;;;;;9.00;2.25;;;-0.80;99.90;;;;;;5075267;28;20048;-67
2021/04/14 00:40:42;;;;;;;6.57;2.50;;;-0.60;99.90;;;;;;5099922;28;20412;-67
2021/04/14 00:43:11;;;;;;;6.22;2.28;;;-0.60;99.90;;;;;;5097460;28;20096;-67
2021/04/14 00:45:38;;;;;;;6.35;2.40;;;-0.60;99.90;;;;;;5101319;28;20089;-68
2021/04/14 00:48:06;;;;;;;10.90;2.42;;;-0.60;99.90;;;;;;5097746;28;20105;-67
2021/04/14 00:50:33;;;;;;;7.53;2.17;;;-0.60;99.90;;;;;;5095092;28;20044;-67
2021/04/14 00:52:59;;;;;;;7.90;2.15;;;-0.60;99.90;;;;;;5091440;28;20526;-68
2021/04/14 00:55:28;;;;;;;3.13;1.48;;;-0.70;99.90;;;;;;5107956;28;20058;-68
2021/04/14 00:57:54;;;;;;;6.53;2.50;;;-0.80;99.90;;;;;;5112093;27;20047;-68
2021/04/14 01:00:35;;;;;;;4.40;2.10;;;-0.80;99.90;;;;;;5110861;27;20502;-67
2021/04/14 01:03:03;;;;;;;6.82;2.33;;;-0.80;99.90;;;;;;5087110;28;20047;-67
2021/04/14 01:05:52;;;;;;;3.42;2.00;;;-0.90;99.90;;;;;;5112129;27;20048;-67
2021/04/14 01:08:28;;;;;;;4.43;1.98;;;-1.00;99.90;;;;;;5092523;27;20046;-67
2021/04/14 01:10:55;;;;;;;6.78;2.28;;;-0.90;99.90;;;;;;5110017;28;20043;-68
2021/04/14 01:13:21;;;;;;;4.97;1.88;;;-0.90;99.90;;;;;;5106087;28;20098;-68
2021/04/14 01:15:50;;;;;;;4.10;2.00;;;-0.90;99.90;;;;;;5094846;28;20039;-68
2021/04/14 01:18:27;;;;;;;6.03;1.92;;;-1.00;99.90;;;;;;5110498;27;20118;-67
2021/04/14 01:20:54;;;;;;;3.25;1.45;;;-1.00;99.90;;;;;;5093280;28;20108;-68
2021/04/14 01:23:23;;;;;;;5.43;2.50;;;-1.00;99.90;;;;;;5087629;27;20085;-67
2021/04/14 01:25:50;;;;;;;6.72;2.15;;;-1.10;99.90;;;;;;5092876;28;20176;-67
2021/04/14 01:28:30;;;;;;;7.93;1.83;;;-1.00;99.90;;;;;;5108030;27;20039;-67
2021/04/14 01:30:57;;;;;;;5.55;2.00;;;-1.10;99.90;;;;;;5101848;27;20102;-67
2021/04/14 01:33:28;;;;;;;6.28;2.10;;;-1.10;99.90;;;;;;5092357;28;20098;-67
2021/04/14 01:35:55;;;;;;;5.25;2.00;;;-1.10;99.90;;;;;;5099596;27;20444;-67
2021/04/14 01:38:21;;;;;;;8.13;1.95;;;-1.20;99.90;;;;;;5074345;28;20106;-67
2021/04/14 01:40:48;;;;;;;5.95;2.28;;;-1.20;99.90;;;;;;5099164;27;20047;-67
2021/04/14 01:43:14;;;;;;;5.47;2.10;;;-1.20;99.90;;;;;;5119788;27;20043;-67
2021/04/14 01:45:44;;;;;;;4.50;1.83;;;-1.20;99.90;;;;;;5099048;27;20103;-67
2021/04/14 01:48:11;;;;;;;5.63;2.10;;;-1.20;99.90;;;;;;5110412;28;20361;-67
2021/04/14 01:50:38;;;;;;;8.63;2.95;;;-1.30;99.90;;;;;;5110084;27;20510;-68
2021/04/14 01:53:11;;;;;;;10.95;3.38;;;-1.30;99.90;;;;;;5079321;28;20050;-68
2021/04/14 01:55:38;;;;;;;10.38;2.83;;;-1.40;99.90;;;;;;5109407;27;20109;-67
2021/04/14 01:58:08;;;;;;;10.35;4.72;;;-1.30;99.90;;;;;;5101789;27;20446;-68
2021/04/14 02:00:44;;;;;;;8.43;3.53;;;-1.30;99.90;;;;;;5104150;28;20113;-68
2021/04/14 02:03:12;;;;;;;10.10;3.35;;;-1.30;99.90;;;;;;5094762;28;20040;-67
2021/04/14 02:05:39;;;;;;;8.98;3.22;;;-1.40;99.90;;;;;;5118524;27;20493;-67
2021/04/14 02:08:08;;;;;;;9.93;3.63;;;-1.50;99.90;;;;;;5108013;27;20028;-67
2021/04/14 02:10:35;;;;;;;11.23;4.15;;;-1.50;99.90;;;;;;5073448;28;20113;-68
2021/04/14 02:13:10;;;;;;;8.70;3.42;;;-1.40;99.90;;;;;;5085081;28;20188;-67
2021/04/14 02:15:37;;;;;;;9.38;4.22;;;-1.30;99.90;;;;;;5105333;28;20056;-67
2021/04/14 02:18:04;;;;;;;8.32;3.40;;;-1.20;99.90;;;;;;5093952;28;20424;-67
2021/04/14 02:20:32;;;;;;;9.55;3.30;;;-1.20;99.90;;;;;;5101922;27;20051;-67
2021/04/14 02:22:58;;;;;;;9.38;3.80;;;-1.20;99.90;;;;;;5111010;27;20051;-67
2021/04/14 02:25:25;;;;;;;11.30;4.20;;;-1.30;99.90;;;;;;5107981;27;20047;-66
2021/04/14 02:27:52;;;;;;;6.80;3.40;;;-1.30;99.90;;;;;;5092390;28;20062;-67
2021/04/14 02:30:24;;;;;;;11.18;3.20;;;-1.30;99.90;;;;;;5108508;27;20035;-67
2021/04/14 02:32:52;;;;;;;8.43;3.85;;;-1.30;99.90;;;;;;5099724;27;20505;-67
2021/04/14 02:35:21;;;;;;;7.50;2.30;;;-1.30;99.90;;;;;;5111252;27;20036;-67
2021/04/14 02:37:47;;;;;;;7.00;3.40;;;-1.30;99.90;;;;;;5103242;28;20036;-67
2021/04/14 02:40:15;;;;;;;8.85;3.80;;;-1.40;99.90;;;;;;5097529;27;20046;-67
2021/04/14 02:42:41;;;;;;;9.70;3.75;;;-1.40;99.90;;;;;;5092419;28;20413;-68
2021/04/14 02:45:10;;;;;;;10.77;3.75;;;-1.40;99.90;;;;;;5094751;27;20497;-69
2021/04/14 02:47:37;;;;;;;10.77;4.20;;;-1.30;99.90;;;;;;5110422;27;20044;-68
2021/04/14 02:50:08;;;;;;;9.70;4.07;;;-1.20;99.90;;;;;;5079579;27;20044;-68
2021/04/14 02:52:35;;;;;;;12.70;5.03;;;-1.20;99.90;;;;;;5095487;27;20092;-67
2021/04/14 02:55:02;;;;;;;10.35;4.07;;;-1.20;99.90;;;;;;5092921;27;20068;-68
2021/04/14 02:57:28;;;;;;;8.65;3.92;;;-1.20;99.90;;;;;;5108947;27;20092;-67
2021/04/14 02:59:54;;;;;;;7.88;4.00;;;-1.20;99.90;;;;;;5108572;27;20493;-68
2021/04/14 03:02:22;;;;;;;8.75;4.38;;;-1.20;99.90;;;;;;5086865;27;20564;-67
2021/04/14 03:04:49;;;;;;;8.68;4.30;;;-1.10;99.90;;;;;;5112570;27;20039;-67
2021/04/14 03:07:15;;;;;;;10.30;5.72;;;-0.90;99.90;;;;;;5100561;28;20420;-68
2021/04/14 03:10:04;;;;;;;6.47;4.32;;;-0.90;99.90;;;;;;5100806;28;20047;-68
2021/04/14 03:12:51;;;;;;;12.18;5.20;;;-1.00;99.90;;;;;;5077792;28;20512;-67
2021/04/14 03:15:24;;;;;;;11.52;5.22;;;-1.00;99.90;;;;;;5101374;28;20150;-67
2021/04/14 03:17:51;;;;;;;13.68;5.40;;;-1.10;99.90;;;;;;5109405;28;20077;-67
2021/04/14 03:20:18;;;;;;;8.98;5.10;;;-1.20;99.90;;;;;;5117936;27;20043;-68
2021/04/14 03:22:44;;;;;;;12.18;4.97;;;-1.10;99.90;;;;;;5096836;28;20043;-67
2021/04/14 03:25:11;;;;;;;14.07;4.72;;;-1.00;99.90;;;;;;5072187;28;20043;-67
2021/04/14 03:27:38;;;;;;;18.90;5.70;;;-1.00;99.90;;;;;;5101408;28;20571;-68
2021/04/14 03:30:09;;;;;;;14.20;4.90;;;-1.00;99.90;;;;;;5096667;28;20040;-67
2021/04/14 03:32:36;;;;;;;11.25;5.28;;;-0.90;99.90;;;;;;5105396;27;20039;-67
2021/04/14 03:35:05;;;;;;;15.07;5.82;;;-0.90;99.90;;;;;;5088963;28;20049;-67
2021/04/14 03:37:31;;;;;;;15.00;5.03;;;-1.00;99.90;;;;;;5107534;27;20046;-67
2021/04/14 03:39:58;;;;;;;12.63;5.47;;;-1.10;99.90;;;;;;5118039;27;20427;-67
2021/04/14 03:42:24;;;;;;;10.02;5.30;;;-1.10;99.90;;;;;;5115468;27;20047;-67
2021/04/14 03:44:56;;;;;;;13.07;5.15;;;-1.10;99.90;;;;;;5057944;28;20039;-68
2021/04/14 03:47:23;;;;;;;12.65;6.00;;;-1.00;99.90;;;;;;5088057;28;20366;-67
2021/04/14 03:49:51;;;;;;;14.15;6.13;;;-1.00;99.90;;;;;;5056967;28;20041;-67
2021/04/14 03:52:18;;;;;;;11.70;6.00;;;-1.10;99.90;;;;;;5103096;28;20040;-67
2021/04/14 03:54:45;;;;;;;10.88;6.68;;;-1.10;99.90;;;;;;5096077;28;20519;-68
2021/04/14 03:57:11;;;;;;;13.20;5.63;;;-1.20;99.90;;;;;;5106561;28;20149;-67
2021/04/14 03:59:38;;;;;;;9.98;5.47;;;-1.30;99.90;;;;;;5106030;28;20044;-68
2021/04/14 04:02:04;;;;;;;15.07;5.75;;;-1.30;99.90;;;;;;5109462;27;20109;-67
2021/04/14 04:04:31;;;;;;;12.23;5.70;;;-1.30;99.90;;;;;;5117296;27;20086;-67
2021/04/14 04:06:57;;;;;;;17.90;6.70;;;-1.30;99.90;;;;;;5106564;27;20551;-67
2021/04/14 04:09:24;;;;;;;11.05;6.13;;;-1.30;99.90;;;;;;5109748;28;20036;-68
2021/04/14 04:11:50;;;;;;;14.60;7.10;;;-1.20;99.90;;;;;;5116831;27;20047;-67
2021/04/14 04:14:17;;;;;;;10.70;5.88;;;-1.20;99.90;;;;;;5100340;27;20505;-68
2021/04/14 04:16:43;;;;;;;10.13;5.57;;;-1.20;99.90;;;;;;5110690;27;20448;-68
2021/04/14 04:19:11;;;;;;;10.65;6.45;;;-1.20;99.90;;;;;;5074691;28;20036;-68
2021/04/14 04:21:37;;;;;;;9.70;6.22;;;-1.20;99.90;;;;;;5086394;28;20240;-67
2021/04/14 04:24:04;;;;;;;10.73;5.70;;;-1.20;99.90;;;;;;5100394;28;20512;-67
2021/04/14 04:26:30;;;;;;;11.98;5.70;;;-1.30;99.90;;;;;;5102428;27;20074;-68
2021/04/14 04:29:05;;;;;;;15.13;5.82;;;-1.30;99.90;;;;;;5100774;27;20038;-69
2021/04/14 04:31:31;;;;;;;10.73;6.18;;;-1.40;99.90;;;;;;5112938;27;20043;-67
2021/04/14 04:33:57;;;;;;;13.10;5.45;;;-1.30;99.90;;;;;;5106657;27;21339;-67
2021/04/14 04:36:24;;;;;;;12.32;5.47;;;-1.30;99.90;;;;;;5078138;28;20493;-67
2021/04/14 04:38:50;;;;;;;13.68;6.18;;;-1.30;99.90;;;;;;5107296;27;20559;-68
2021/04/14 04:41:17;;;;;;;11.23;6.35;;;-1.30;99.90;;;;;;5093279;28;20040;-68
2021/04/14 04:43:43;;;;;;;12.00;7.28;;;-1.40;99.90;;;;;;5107602;27;20040;-69
2021/04/14 04:46:09;;;;;;;15.77;7.75;;;-1.40;99.90;;;;;;5095191;28;20044;-68
2021/04/14 04:48:36;;;;;;;14.20;7.38;;;-1.40;99.90;;;;;;5103844;28;20039;-68
2021/04/14 04:51:02;;;;;;;16.00;8.95;;;-1.30;99.90;;;;;;5094664;28;20077;-69
2021/04/14 04:53:29;;;;;;;14.05;7.30;;;-1.40;99.90;;;;;;5088767;28;20141;-68
2021/04/14 04:55:59;;;;;;;14.18;8.50;;;-1.40;99.90;;;;;;5095025;28;20044;-68
2021/04/14 04:58:25;;;;;;;13.20;7.40;;;-1.40;99.90;;;;;;5093293;28;20109;-68
2021/04/14 05:00:52;;;;;;;16.10;8.32;;;-1.40;99.90;;;;;;5093807;28;20717;-68
2021/04/14 05:03:25;;;;;;;16.50;8.40;;;-1.40;99.90;;;;;;5095005;28;20040;-68
2021/04/14 05:05:52;;;;;;;11.55;6.82;;;-1.20;99.90;;;;;;5112243;28;20039;-68
2021/04/14 05:08:19;;;;;;;13.48;6.40;;;-1.10;99.90;;;;;;5113217;28;20185;-68
2021/04/14 05:10:45;;;;;;;9.80;6.38;;;-1.20;99.90;;;;;;5092802;28;20055;-69
2021/04/14 05:13:11;;;;;;;14.23;7.10;;;-1.30;99.90;;;;;;5062035;28;20524;-69
2021/04/14 05:15:40;;;;;;;10.65;6.32;;;-1.40;99.90;;;;;;5093595;28;20048;-68
2021/04/14 05:18:08;;;;;;;12.73;7.18;;;-1.50;99.90;;;;;;5094422;27;20494;-67
2021/04/14 05:20:35;;;;;;;13.02;8.15;;;-1.50;99.90;;;;;;5092595;28;20039;-67
2021/04/14 05:23:01;;;;;;;17.02;8.43;;;-1.60;99.90;;;;;;5099852;27;20033;-68
2021/04/14 05:25:31;;;;;;;10.65;7.47;;;-1.60;99.90;;;;;;5092692;28;20040;-70
2021/04/14 05:28:03;;;;;;;15.27;8.40;;;-1.50;99.90;;;;;;5106509;28;20421;-69
2021/04/14 05:30:30;;;;;;;14.43;8.93;;;-1.50;99.90;;;;;;5093443;28;20117;-69
2021/04/14 05:32:56;;;;;;;14.75;9.43;;;-1.40;99.90;;;;;;5084591;28;20048;-69
2021/04/14 05:35:23;;;;;;;19.55;9.35;;;-1.30;99.90;;;;;;5098708;27;20048;-67
2021/04/14 05:37:50;;;;;;;15.13;8.30;;;-1.30;99.90;;;;;;5096405;27;20040;-69
2021/04/14 05:40:17;;;;;;;17.30;9.07;;;-1.40;99.90;;;;;;5112968;27;20398;-69
2021/04/14 05:42:47;;;;;;;14.20;8.77;;;-1.30;99.90;;;;;;5095297;28;20081;-69
2021/04/14 05:45:18;;;;;;;17.63;9.30;;;-1.20;99.90;;;;;;5077865;28;20185;-69
2021/04/14 05:47:45;;;;;;;19.58;9.20;;;-1.00;99.90;;;;;;5102090;28;20538;-69
2021/04/14 05:50:15;;;;;;;14.35;9.27;;;-0.90;99.90;;;;;;5100682;28;20092;-69
2021/04/14 05:52:42;;;;;;;16.67;8.80;;;-0.80;99.90;;;;;;5074938;28;20044;-69
2021/04/14 05:55:10;;;;;;;14.82;8.00;;;-0.70;99.90;;;;;;5103824;28;20047;-68
2021/04/14 05:57:37;;;;;;;13.77;7.38;;;-0.60;99.90;;;;;;5108772;28;20109;-69
2021/04/14 06:00:08;;;;;;;16.25;8.27;;;-0.40;99.90;;;;;;5084419;28;20563;-69
2021/04/14 06:02:35;;;;;;;11.55;7.22;;;-0.20;99.90;;;;;;5106037;28;20112;-68
2021/04/14 06:05:03;;;;;;;12.93;7.60;;;0.00;99.90;;;;;;5090949;28;20068;-69
2021/04/14 06:07:29;;;;;;;13.63;8.30;;;0.10;99.90;;;;;;5100055;28;20047;-69
2021/04/14 06:09:56;;;;;;;14.32;7.95;;;0.20;99.90;;;;;;5076756;28;20044;-68
2021/04/14 06:12:22;;;;;;;15.23;6.88;;;0.50;99.90;;;;;;5120721;27;20097;-69
2021/04/14 06:14:48;;;;;;;15.20;6.85;;;0.80;99.90;;;;;;5094702;27;20097;-69
2021/04/14 06:17:15;;;;;;;12.77;7.15;;;1.00;99.90;;;;;;5104373;28;20047;-69
2021/04/14 06:19:42;;;;;;;10.43;6.63;;;1.20;99.90;;;;;;5076155;28;20039;-68
2021/04/14 06:22:08;;;;;;;13.77;7.10;;;1.40;99.90;;;;;;5090496;28;20047;-69
2021/04/14 06:24:34;;;;;;;11.57;6.85;;;1.50;99.90;;;;;;5091018;28;20074;-69
2021/04/14 06:27:06;;;;;;;13.05;6.28;;;1.60;99.90;;;;;;5072618;28;20055;-69
2021/04/14 06:29:32;;;;;;;13.20;6.57;;;1.70;99.90;;;;;;5096087;28;20090;-69
2021/04/14 06:31:59;;;;;;;14.15;6.60;;;1.70;99.90;;;;;;5071787;28;20097;-69
2021/04/14 06:34:27;;;;;;;11.35;7.07;;;1.80;99.90;;;;;;5101592;28;20051;-69
2021/04/14 06:36:57;;;;;;;12.07;6.72;;;1.90;99.90;;;;;;5092208;28;20044;-68
2021/04/14 06:39:29;;;;;;;12.13;6.60;;;2.00;99.90;;;;;;5108765;27;20040;-69
2021/04/14 06:42:18;;;;;;;12.98;6.30;;;2.20;99.90;;;;;;5111677;28;20079;-68
2021/04/14 06:45:17;;;;;;;13.52;5.78;;;2.40;99.90;;;;;;5107493;28;20113;-69
2021/04/14 06:47:50;;;;;;;15.50;6.38;;;2.50;99.90;;;;;;5085601;28;20039;-69
2021/04/14 06:50:17;;;;;;;10.30;5.50;;;2.50;99.90;;;;;;5099411;28;20042;-69
2021/04/14 06:52:54;;;;;;;12.80;6.70;;;2.60;99.90;;;;;;5090288;28;20047;-69
2021/04/14 06:55:50;;;;;;;10.02;5.65;;;2.60;99.90;;;;;;5108498;28;20470;-69
2021/04/14 06:58:20;;;;;;;13.45;6.18;;;2.60;99.90;;;;;;5089109;28;20510;-69
2021/04/14 07:00:59;;;;;;;8.90;5.72;;;2.60;99.90;;;;;;5077027;27;20048;-69
2021/04/14 07:03:34;;;;;;;13.10;6.70;;;2.70;99.90;;;;;;5104430;27;20044;-69
2021/04/14 07:06:07;;;;;;;17.98;6.38;;;2.60;99.90;;;;;;5103010;28;20115;-69
2021/04/14 07:09:32;;;;;;;7.55;5.20;;;2.60;99.90;;;;;;5096406;28;20039;-69
2021/04/14 07:12:00;;;;;;;11.55;5.97;;;2.80;99.90;;;;;;5074339;27;20489;-69
2021/04/14 07:14:28;;;;;;;10.50;6.03;;;2.80;99.90;;;;;;5116014;27;20043;-69
2021/04/14 07:17:34;;;;;;;14.63;6.30;;;2.80;99.90;;;;;;5095824;28;20054;-69
2021/04/14 07:20:31;;;;;;;10.73;5.50;;;2.90;99.90;;;;;;5086513;28;20044;-69
2021/04/14 07:23:03;;;;;;;9.05;5.35;;;2.90;99.90;;;;;;5086259;28;20481;-70
2021/04/14 07:25:46;;;;;;;11.85;4.97;;;3.20;99.90;;;;;;5108223;28;20120;-69
2021/04/14 07:28:38;;;;;;;9.13;4.68;;;3.50;99.90;;;;;;5102458;28;20124;-68
2021/04/14 07:31:30;;;;;;;6.60;4.47;;;3.90;99.90;;;;;;5087104;28;20416;-69
2021/04/14 07:34:22;;;;;;;10.05;4.20;;;4.30;99.90;;;;;;5071452;28;20460;-69
2021/04/14 07:37:00;;;;;;;10.40;4.57;;;4.50;99.90;;;;;;5090393;28;20051;-69
2021/04/14 07:39:54;;;;;;;8.45;3.90;;;4.80;99.90;;;;;;5100201;28;20082;-69
2021/04/14 07:42:34;;;;;;;10.40;3.90;;;4.70;99.90;;;;;;5102396;28;20146;-69
2021/04/14 07:45:24;;;;;;;9.32;3.55;;;4.80;99.90;;;;;;5100175;28;20044;-68
2021/04/14 07:48:03;;;;;;;11.57;4.38;;;4.90;99.90;;;;;;5096240;28;20046;-67
2021/04/14 07:50:42;;;;;;;10.68;4.22;;;5.10;99.90;;;;;;5100413;28;20052;-68
2021/04/14 07:53:35;;;;;;;8.65;4.45;;;4.90;99.90;;;;;;5095669;28;21403;-68
2021/04/14 07:56:09;;;;;;;8.07;3.75;;;5.20;99.90;;;;;;5083566;28;20044;-68
2021/04/14 07:58:43;;;;;;;8.73;3.72;;;5.60;99.90;;;;;;5090084;28;20043;-70
2021/04/14 08:01:25;;;;;;;8.07;3.60;;;5.50;99.90;;;;;;5094989;28;20036;-68
2021/04/14 08:03:53;;;;;;;9.52;3.45;;;5.30;99.90;;;;;;5082673;28;20098;-68
2021/04/14 08:06:28;;;;;;;8.82;3.05;;;5.70;99.90;;;;;;5098386;28;20095;-68
2021/04/14 08:08:55;;;;;;;8.77;3.85;;;6.10;99.90;;;;;;5088229;28;20051;-68
2021/04/14 08:11:32;;;;;;;6.53;3.30;;;6.50;99.90;;;;;;5079955;28;20516;-68
2021/04/14 08:14:11;;;;;;;9.75;3.55;;;6.80;99.90;;;;;;5103700;28;20036;-68
2021/04/14 08:16:50;;;;;;;8.40;3.22;;;7.30;99.90;;;;;;5087602;28;20054;-68
2021/04/14 08:19:27;;;;;;;7.70;3.65;;;7.60;99.90;;;;;;5093277;28;20051;-68
2021/04/14 08:22:12;;;;;;;11.77;3.38;;;7.80;99.90;;;;;;5080842;28;20747;-69
2021/04/14 08:24:53;;;;;;;7.05;3.47;;;7.70;99.90;;;;;;5091630;28;20036;-68
2021/04/14 08:27:45;;;;;;;9.25;3.95;;;7.80;99.90;;;;;;5105058;28;20039;-68
2021/04/14 08:30:16;;;;;;;9.95;3.47;;;7.50;99.90;;;;;;5087273;28;20093;-69
2021/04/14 08:32:44;;;;;;;9.38;3.25;;;7.80;99.90;;;;;;5093899;28;20036;-68
2021/04/14 08:35:31;;;;;;;8.43;3.67;;;8.30;99.90;;;;;;5107972;28;20048;-68
2021/04/14 08:38:07;;;;;;;5.93;3.25;;;8.30;99.90;;;;;;5101641;28;20043;-68
2021/04/14 08:40:46;;;;;;;9.60;3.65;;;8.20;99.90;;;;;;5116205;28;20097;-68
2021/04/14 08:43:31;;;;;;;8.27;3.50;;;8.00;99.90;;;;;;5106673;28;20047;-68
2021/04/14 08:46:13;;;;;;;16.05;3.90;;;8.10;99.90;;;;;;5087575;28;20061;-68
2021/04/14 08:48:51;;;;;;;5.95;2.63;;;8.30;99.90;;;;;;5113650;28;20035;-70
2021/04/14 08:51:18;;;;;;;8.18;2.67;;;8.30;99.90;;;;;;5106562;27;20047;-68
2021/04/14 08:53:47;;;;;;;5.03;2.25;;;9.20;99.90;;;;;;5118926;27;20117;-67
2021/04/14 08:56:14;;;;;;;8.88;2.30;;;9.70;99.90;;;;;;5098767;28;20040;-67
2021/04/14 08:58:41;;;;;;;10.82;2.60;;;9.70;99.90;;;;;;5102573;27;20047;-68
2021/04/14 09:01:16;;;;;;;6.15;2.58;;;9.60;99.90;;;;;;5116401;27;20480;-67
2021/04/14 09:03:45;;;;;;;5.82;2.60;;;9.30;99.90;;;;;;5110604;28;20040;-67
2021/04/14 09:06:14;;;;;;;5.78;2.22;;;9.50;99.90;;;;;;5103579;28;20040;-67
2021/04/14 09:08:45;;;;;;;5.93;2.33;;;10.70;99.90;;;;;;5107020;28;20093;-69
2021/04/14 09:11:29;;;;;;;8.07;2.25;;;11.40;99.80;;;;;;5092954;28;20036;-67
2021/04/14 09:14:03;;;;;;;7.35;2.63;;;10.70;99.00;;;;;;5095982;28;20051;-67
2021/04/14 09:16:47;;;;;;;5.75;2.30;;;9.50;99.90;;;;;;5087743;28;20047;-67
2021/04/14 09:19:42;;;;;;;6.65;2.60;;;9.30;99.90;;;;;;5094933;28;20048;-69
2021/04/14 09:22:15;;;;;;;9.68;2.65;;;8.40;99.90;;;;;;5093691;28;20044;-68
2021/04/14 09:24:44;;;;;;;11.57;3.45;;;7.50;99.90;;;;;;5075501;28;20039;-69
2021/04/14 09:27:29;;;;;;;4.90;2.03;;;7.20;99.90;;;;;;5078730;28;20040;-68
2021/04/14 09:30:33;;;;;;;3.88;2.03;;;7.40;99.90;;;;;;5109090;28;20512;-68
2021/04/14 09:33:07;;;;;;;5.43;1.77;;;7.00;99.90;;;;;;5091904;28;20123;-68
2021/04/14 09:35:33;;;;;;;7.05;2.13;;;6.70;99.90;;;;;;5092908;28;20048;-69
2021/04/14 09:38:30;;;;;;;5.50;1.80;;;6.50;99.90;;;;;;5094566;28;20109;-69
2021/04/14 09:41:20;;;;;;;4.78;1.80;;;6.60;99.90;;;;;;5084967;28;20048;-68
2021/04/14 09:43:55;;;;;;;7.95;2.33;;;6.60;99.90;;;;;;5092700;28;20517;-68
2021/04/14 09:46:34;;;;;;;5.57;2.28;;;6.50;99.90;;;;;;5104676;28;20081;-68
2021/04/14 09:49:11;;;;;;;6.13;2.50;;;6.70;99.90;;;;;;5079056;28;20040;-69
2021/04/14 09:51:56;;;;;;;5.57;2.80;;;6.30;99.90;;;;;;5072918;28;20044;-68
2021/04/14 09:54:29;;;;;;;6.72;2.45;;;6.30;99.90;;;;;;5090453;28;20047;-69
2021/04/14 09:56:59;;;;;;;7.13;2.78;;;6.60;99.90;;;;;;5109935;28;20043;-70
2021/04/14 10:00:03;;;;;;;6.13;2.25;;;7.50;99.90;;;;;;5086783;28;20040;-69
2021/04/14 10:02:56;;;;;;;8.80;2.45;;;8.10;99.90;;;;;;5099824;27;20413;-69
2021/04/14 10:05:43;;;;;;;7.55;3.03;;;8.30;99.90;;;;;;5084158;27;20117;-68
2021/04/14 10:08:15;;;;;;;7.07;2.58;;;8.10;99.90;;;;;;5090349;28;20036;-67
2021/04/14 10:10:47;;;;;;;4.28;2.30;;;8.00;99.90;;;;;;5112478;27;20114;-66
2021/04/14 10:13:16;;;;;;;12.00;2.35;;;8.50;99.90;;;;;;5113672;27;20541;-66
2021/04/14 10:15:44;;;;;;;5.38;1.60;;;9.90;99.90;;;;;;5082896;28;20052;-67
2021/04/14 10:18:30;;;;;;;7.88;1.73;;;10.90;98.50;;;;;;5091297;28;20051;-67
2021/04/14 10:21:12;;;;;;;4.28;1.80;;;11.30;96.50;;;;;;5074002;28;20113;-67
2021/04/14 10:23:39;;;;;;;4.47;1.30;;;12.20;95.80;;;;;;5110992;28;20040;-67
2021/04/14 10:26:09;;;;;;;5.07;1.40;;;12.80;91.40;;;;;;5111725;28;20073;-66
2021/04/14 10:28:39;;;;;;;6.93;1.55;;;12.60;87.50;;;;;;5098100;27;20054;-67
2021/04/14 10:31:22;;;;;;;2.55;1.10;;;12.40;90.10;;;;;;5077499;28;20150;-67
2021/04/14 10:33:49;;;;;;;3.72;1.52;;;12.40;86.90;;;;;;5094144;27;20147;-67
2021/04/14 10:36:31;;;;;;;3.78;1.60;;;12.30;86.50;;;;;;5074523;28;20452;-67
2021/04/14 10:39:19;;;;;;;3.42;1.50;;;13.00;84.80;;;;;;5092906;28;20590;-68
2021/04/14 10:41:48;;;;;;;4.57;1.98;;;12.40;82.50;;;;;;5104464;27;20043;-66
2021/04/14 10:44:27;;;;;;;6.53;1.52;;;11.00;91.20;;;;;;5107480;27;20497;-67
2021/04/14 10:47:28;;;;;;;5.82;1.50;;;10.40;88.40;;;;;;5107294;27;20028;-67
2021/04/14 10:50:26;;;;;;;3.83;1.50;;;9.00;91.60;;;;;;5094245;28;20123;-67
2021/04/14 10:53:07;;;;;;;3.85;1.38;;;8.70;93.50;;;;;;5092541;27;20054;-67
2021/04/14 10:55:40;;;;;;;3.42;1.38;;;8.40;93.70;;;;;;5105932;27;20067;-69
2021/04/14 10:58:08;;;;;;;7.20;1.60;;;8.50;95.30;;;;;;5077220;27;20040;-69
2021/04/14 11:00:40;;;;;;;1.88;1.20;;;9.00;95.20;;;;;;5108853;27;20047;-67
2021/04/14 11:03:12;;;;;;;3.22;1.20;;;9.30;93.10;;;;;;5111491;27;20399;-68
2021/04/14 11:05:52;;;;;;;4.38;1.55;;;9.60;92.00;;;;;;5128000;27;20046;-67
2021/04/14 11:08:19;;;;;;;7.18;1.27;;;9.70;90.90;;;;;;5076221;27;20095;-67
2021/04/14 11:10:47;;;;;;;3.83;1.10;;;10.20;90.70;;;;;;5087264;28;20089;-68
2021/04/14 11:13:25;;;;;;;7.20;1.75;;;10.90;89.60;;;;;;5086237;27;20523;-68
2021/04/14 11:15:53;;;;;;;3.83;1.48;;;10.90;86.80;;;;;;5107627;27;20051;-67
2021/04/14 11:18:30;;;;;;;3.83;1.60;;;11.00;84.50;;;;;;5086337;27;20039;-67
2021/04/14 11:20:59;;;;;;;3.60;1.25;;;10.60;87.10;;;;;;5105070;27;20051;-67
2021/04/14 11:23:28;;;;;;;5.53;1.75;;;10.10;83.40;;;;;;5091841;27;20057;-67
2021/04/14 11:26:06;;;;;;;3.67;1.42;;;9.30;88.10;;;;;;5117083;27;20096;-67
2021/04/14 11:28:48;;;;;;;3.65;1.35;;;8.40;92.40;;;;;;5094274;27;20039;-68
2021/04/14 11:31:30;;;;;;;5.13;1.43;;;7.80;95.10;;;;;;5107635;27;20094;-67
2021/04/14 11:33:59;;;;;;;4.88;1.65;;;7.20;99.20;;;;;;5094202;28;20168;-67
2021/04/14 11:36:26;;;;;;;3.10;1.30;;;7.30;99.90;;;;;;5117947;27;20045;-67
2021/04/14 11:39:01;;;;;;;4.00;1.80;;;7.00;99.90;;;;;;5110247;28;20116;-67
2021/04/14 11:41:34;;;;;;;6.78;1.80;;;6.90;99.90;;;;;;5087069;28;20077;-69
2021/04/14 11:44:13;;;;;;;3.40;1.75;;;6.80;99.90;;;;;;5092243;27;20035;-70
2021/04/14 11:46:40;;;;;;;5.40;2.05;;;6.90;99.90;;;;;;5100623;27;20079;-69
2021/04/14 11:49:12;;;;;;;6.15;1.70;;;7.10;99.90;;;;;;5101655;28;20047;-67
2021/04/14 11:51:47;;;;;;;3.40;1.50;;;7.20;99.90;;;;;;5104940;28;20040;-69
2021/04/14 11:54:16;;;;;;;3.90;1.75;;;7.10;99.90;;;;;;5093922;28;20100;-70
2021/04/14 11:57:02;;;;;;;2.85;1.55;;;7.10;99.90;;;;;;5102960;28;20104;-70
2021/04/14 11:59:31;;;;;;;;;;;7.30;99.90;;;;;;5119366;28;20047;-67
2021/04/14 12:02:17;;;;;;;3.45;1.48;;;8.00;99.90;;;;;;5111237;28;20284;-68
2021/04/14 12:04:58;;;;;;;3.10;1.50;;;7.70;98.10;;;;;;5102775;28;20068;-67
2021/04/14 12:07:26;;;;;;;4.22;1.50;;;7.80;98.50;;;;;;5120553;28;20523;-67
2021/04/14 12:09:52;;;;;;;3.53;1.63;;;7.80;97.40;;;;;;5110298;28;20496;-67
2021/04/14 12:12:19;;;;;;;4.68;1.63;;;8.50;95.90;;;;;;5112185;28;20047;-68
2021/04/14 12:14:46;;;;;;;2.92;1.58;;;8.60;93.50;;;;;;5091078;28;20500;-67
2021/04/14 12:17:13;;;;;;;3.80;1.30;;;8.60;91.40;;;;;;5106225;28;20046;-67
2021/04/14 12:19:40;;;;;;;5.32;1.52;;;8.30;90.80;;;;;;5114692;27;20183;-67
2021/04/14 12:22:07;;;;;;;2.88;1.55;;;8.70;88.80;;;;;;5095450;27;20088;-69
2021/04/14 12:24:34;;;;;;;3.92;1.25;;;8.90;87.00;;;;;;5096615;27;20050;-67
2021/04/14 12:27:20;;;;;;;2.80;1.00;;;9.50;86.10;;;;;;5101935;27;20036;-68
2021/04/14 12:29:46;;;;;;;4.50;1.52;;;9.70;81.90;;;;;;5112528;27;20051;-67
2021/04/14 12:32:13;;;;;;;4.18;1.20;;;9.80;74.50;;;;;;5097441;27;20089;-67
2021/04/14 12:34:39;;;;;;;4.60;1.55;;;10.00;70.60;;;;;;5114343;27;20053;-67
2021/04/14 12:37:12;;;;;;;4.55;1.70;;;10.20;70.20;;;;;;5108799;28;20076;-68
2021/04/14 12:39:39;;;;;;;3.75;1.35;;;10.00;71.30;;;;;;5097108;27;20408;-67
2021/04/14 12:42:42;;;;;;;4.03;1.45;;;10.90;74.40;;;;;;5100602;27;20163;-67
2021/04/14 12:45:40;;;;;;;5.38;1.98;;;12.10;69.30;;;;;;5109520;27;20047;-67
2021/04/14 12:48:11;;;;;;;5.13;1.30;;;12.50;69.60;;;;;;5121511;27;20466;-67
2021/04/14 12:51:02;;;;;;;4.05;1.20;;;12.90;68.30;;;;;;5109670;27;20061;-68
2021/04/14 12:53:49;;;;;;;3.75;1.90;;;12.30;62.30;;;;;;5103530;27;20039;-67
2021/04/14 12:56:32;;;;;;;3.45;1.42;;;10.80;69.00;;;;;;5106919;27;20040;-68
2021/04/14 12:59:15;;;;;;;3.95;1.42;;;10.10;77.40;;;;;;5104583;27;20040;-68
2021/04/14 13:01:44;;;;;;;7.10;1.73;;;9.80;78.00;;;;;;5106777;27;20036;-68
2021/04/14 13:04:23;;;;;;;6.22;1.77;;;9.10;79.40;;;;;;5113703;27;20096;-68
2021/04/14 13:06:57;;;;;;;4.88;1.63;;;8.50;83.00;;;;;;5122680;27;20035;-68
2021/04/14 13:09:24;;;;;;;4.15;1.75;;;8.20;84.10;;;;;;5108225;27;20336;-68
2021/04/14 13:12:20;;;;;;;4.97;1.70;;;8.30;83.40;;;;;;5101812;28;20040;-68
2021/04/14 13:14:47;;;;;;;4.60;1.50;;;8.10;82.80;;;;;;5105762;28;20055;-68
2021/04/14 13:17:18;;;;;;;3.53;1.20;;;8.00;81.80;;;;;;5094119;28;20051;-68